Time;durP1;ratioP1;P1;durP2;ratioP2;P2;SDS_P1;SDS_P2;PMS_P1;PMS_P2;Temp;Humidity;BMP_temperature;BMP_pressure;BME280_temperature;BME280_humidity;BME280_pressure;Samples;Min_cycle;Max_cycle;Signal;HPM_P1;HPM_P2
2023/11/21 00:02:20;;;;;;;7.95;2.92;;;;;;;11.01;nan;99422.38;5024334;27;96774;-83
2023/11/21 00:04:47;;;;;;;7.60;2.35;;;;;;;10.85;nan;99409.16;5019641;27;102516;-83
2023/11/21 00:07:13;;;;;;;6.80;2.65;;;;;;;10.84;nan;99414.47;5025272;27;97305;-82
2023/11/21 00:09:38;;;;;;;8.63;2.80;;;;;;;10.80;nan;99423.44;5052397;27;96836;-83
2023/11/21 00:12:04;;;;;;;6.40;2.47;;;;;;;10.86;nan;99428.38;5043107;27;97088;-83
2023/11/21 00:14:29;;;;;;;5.07;2.35;;;;;;;10.80;nan;99426.06;5001296;27;101565;-83
2023/11/21 00:16:55;;;;;;;7.13;2.30;;;;;;;10.80;nan;99433.94;5020187;27;97868;-83
2023/11/21 00:19:21;;;;;;;7.82;2.65;;;;;;;10.83;nan;99428.53;5022509;27;97679;-83
2023/11/21 00:21:46;;;;;;;10.20;2.47;;;;;;;10.75;nan;99431.53;5040007;27;97992;-83
2023/11/21 00:24:13;;;;;;;9.18;2.45;;;;;;;10.67;nan;99433.69;5003108;27;101160;-84
2023/11/21 00:26:42;;;;;;;5.75;2.30;;;;;;;10.70;nan;99428.28;5022771;27;101307;-83
2023/11/21 00:29:08;;;;;;;7.22;2.40;;;;;;;10.85;nan;99438.06;5019932;27;97308;-83
2023/11/21 00:31:38;;;;;;;5.90;2.95;;;;;;;10.78;nan;99414.78;5022100;27;97175;-83
2023/11/21 00:34:05;;;;;;;6.87;2.40;;;;;;;10.86;nan;99439.75;5009059;27;101631;-82
2023/11/21 00:36:32;;;;;;;9.88;2.85;;;;;;;10.94;nan;99444.63;5028818;27;101284;-84
2023/11/21 00:38:58;;;;;;;7.20;2.80;;;;;;;10.93;nan;99435.03;5028275;27;98482;-83
2023/11/21 00:41:27;;;;;;;9.23;2.63;;;;;;;10.85;nan;99438.06;5038752;27;97728;-83
2023/11/21 00:43:53;;;;;;;9.43;3.22;;;;;;;10.91;nan;99439.53;5021481;27;101056;-83
2023/11/21 00:46:19;;;;;;;7.30;2.30;;;;;;;10.92;nan;99433.34;5048133;27;97851;-83
2023/11/21 00:48:45;;;;;;;7.53;2.70;;;;;;;10.91;nan;99438.66;5048506;27;96871;-84
2023/11/21 00:51:11;;;;;;;5.72;2.85;;;;;;;10.83;nan;99437.25;5008278;27;96874;-82
2023/11/21 00:53:36;;;;;;;7.88;2.78;;;;;;;10.91;nan;99428.16;5006537;27;100990;-82
2023/11/21 00:56:02;;;;;;;10.10;3.03;;;;;;;10.93;nan;99429.78;5040319;27;98072;-81
2023/11/21 00:58:28;;;;;;;9.07;2.67;;;;;;;10.94;nan;99431.50;4995649;27;96851;-81
2023/11/21 01:00:53;;;;;;;9.80;2.85;;;;;;;10.97;nan;99422.63;5036388;27;98826;-81
2023/11/21 01:03:19;;;;;;;7.07;2.75;;;;;;;10.96;nan;99439.28;5040790;27;98078;-82
2023/11/21 01:05:45;;;;;;;6.43;2.50;;;;;;;11.01;nan;99439.91;5039901;27;98472;-84
2023/11/21 01:08:11;;;;;;;5.72;2.92;;;;;;;11.04;nan;99437.13;4996787;27;96913;-85
2023/11/21 01:10:37;;;;;;;6.45;2.55;;;;;;;11.01;nan;99438.13;5005510;27;97005;-83
2023/11/21 01:13:05;;;;;;;9.57;2.83;;;;;;;10.62;nan;99391.09;5016088;27;101241;-83
2023/11/21 01:15:31;;;;;;;6.75;3.10;;;;;;;10.80;nan;99428.69;5037792;27;98428;-82
2023/11/21 01:17:57;;;;;;;9.43;2.92;;;;;;;10.95;nan;99443.69;5002249;27;96816;-83
2023/11/21 01:20:23;;;;;;;8.50;3.10;;;;;;;10.96;nan;99441.91;5023930;27;97204;-82
2023/11/21 01:22:49;;;;;;;13.65;3.65;;;;;;;10.87;nan;99441.44;5052136;27;98166;-83
2023/11/21 01:25:15;;;;;;;8.07;2.90;;;;;;;10.90;nan;99436.97;5042367;27;101389;-82
2023/11/21 01:27:43;;;;;;;5.82;2.75;;;;;;;10.90;nan;99450.94;5056329;27;97101;-83
2023/11/21 01:30:10;;;;;;;9.95;2.95;;;;;;;10.87;nan;99451.94;5038064;27;96945;-83
2023/11/21 01:32:36;;;;;;;5.68;2.75;;;;;;;10.89;nan;99444.00;5024338;27;101119;-82
2023/11/21 01:35:05;;;;;;;9.10;2.45;;;;;;;10.82;nan;99430.31;5023352;27;98572;-82
2023/11/21 01:37:30;;;;;;;6.75;2.45;;;;;;;10.87;nan;99436.19;5024977;28;96725;-82
2023/11/21 01:39:56;;;;;;;7.00;2.63;;;;;;;10.95;nan;99453.34;5026500;27;96890;-82
2023/11/21 01:42:22;;;;;;;7.80;2.40;;;;;;;10.94;nan;99457.75;5043014;27;97949;-83
2023/11/21 01:44:48;;;;;;;10.88;2.30;;;;;;;10.92;nan;99456.13;5034454;27;98530;-82
2023/11/21 01:47:14;;;;;;;7.70;2.60;;;;;;;10.95;nan;99461.22;5036541;27;96714;-82
2023/11/21 01:49:39;;;;;;;9.35;2.78;;;;;;;10.74;nan;99434.25;5029675;27;96829;-83
2023/11/21 01:52:06;;;;;;;7.03;2.40;;;;;;;10.86;nan;99454.66;5040837;27;97975;-83
2023/11/21 01:54:32;;;;;;;7.18;2.75;;;;;;;10.86;nan;99452.88;5027622;27;98676;-84
2023/11/21 01:57:02;;;;;;;9.00;3.55;;;;;;;10.90;nan;99442.22;5033792;27;96980;-83
2023/11/21 01:59:36;;;;;;;6.53;2.85;;;;;;;10.97;nan;99451.50;5000855;27;97114;-83
2023/11/21 02:02:05;;;;;;;9.15;3.42;;;;;;;10.91;nan;99442.16;4998066;28;101668;-82
2023/11/21 02:04:34;;;;;;;6.95;3.35;;;;;;;10.86;nan;99449.41;5016910;27;101279;-82
2023/11/21 02:07:00;;;;;;;5.68;2.47;;;;;;;10.88;nan;99443.16;5045212;27;96954;-82
2023/11/21 02:09:26;;;;;;;7.38;2.85;;;;;;;10.91;nan;99451.78;5001460;27;97041;-82
2023/11/21 02:11:53;;;;;;;8.95;3.70;;;;;;;10.90;nan;99445.69;5024138;27;101509;-82
2023/11/21 02:14:21;;;;;;;11.13;3.65;;;;;;;10.87;nan;99453.72;5059668;27;97861;-85
2023/11/21 02:16:49;;;;;;;6.95;3.20;;;;;;;10.82;nan;99453.97;5020456;27;97011;-83
2023/11/21 02:19:22;;;;;;;8.88;3.28;;;;;;;10.76;nan;99454.25;5044716;27;98098;-83
2023/11/21 02:21:52;;;;;;;12.60;3.00;;;;;;;10.71;nan;99437.03;5030191;27;97877;-82
2023/11/21 02:24:22;;;;;;;10.23;3.20;;;;;;;10.82;nan;99447.81;5024216;27;101402;-83
2023/11/21 02:26:51;;;;;;;9.20;3.63;;;;;;;10.86;nan;99450.25;5022194;27;96782;-83
2023/11/21 02:29:18;;;;;;;8.05;3.00;;;;;;;10.88;nan;99455.44;5026742;27;96842;-82
2023/11/21 02:31:47;;;;;;;8.15;2.80;;;;;;;10.81;nan;99449.59;5023486;27;101048;-82
2023/11/21 02:34:17;;;;;;;9.88;3.65;;;;;;;10.72;nan;99433.47;5042659;27;97820;-83
2023/11/21 02:36:47;;;;;;;7.65;3.40;;;;;;;10.74;nan;99429.84;5041784;27;97234;-82
2023/11/21 02:39:13;;;;;;;10.25;3.63;;;;;;;10.84;nan;99462.59;4998399;27;96829;-83
2023/11/21 02:41:39;;;;;;;8.85;3.22;;;;;;;10.78;nan;99444.50;5042740;27;97266;-83
2023/11/21 02:44:08;;;;;;;6.35;2.90;;;;;;;10.93;nan;99455.19;5015719;27;101166;-82
2023/11/21 02:46:34;;;;;;;4.70;2.88;;;;;;;10.92;nan;99451.72;5041321;27;96727;-83
2023/11/21 02:49:03;;;;;;;6.28;2.75;;;;;;;10.84;nan;99443.38;5022823;27;97207;-82
2023/11/21 02:51:30;;;;;;;8.88;3.67;;;;;;;10.92;nan;99454.34;5042113;27;97484;-83
2023/11/21 02:54:00;;;;;;;9.57;3.38;;;;;;;10.96;nan;99457.66;5004598;27;100970;-82
2023/11/21 02:56:27;;;;;;;9.35;3.25;;;;;;;10.95;nan;99459.44;5038845;27;98717;-84
2023/11/21 02:58:55;;;;;;;6.50;2.83;;;;;;;10.92;nan;99458.75;5040810;27;97316;-83
2023/11/21 03:01:21;;;;;;;6.80;3.45;;;;;;;10.92;nan;99470.09;5001865;27;101064;-83
2023/11/21 03:03:47;;;;;;;9.90;3.35;;;;;;;10.90;nan;99463.22;5021643;27;100805;-82
2023/11/21 03:06:13;;;;;;;7.07;3.42;;;;;;;10.92;nan;99477.13;5038878;27;97455;-84
2023/11/21 03:08:38;;;;;;;9.23;3.70;;;;;;;10.88;nan;99471.19;5039175;27;97181;-83
2023/11/21 03:11:04;;;;;;;7.60;3.08;;;;;;;10.87;nan;99469.47;5037957;27;98117;-83
2023/11/21 03:13:29;;;;;;;6.70;3.20;;;;;;;10.86;nan;99463.38;5022076;27;100890;-83
2023/11/21 03:15:57;;;;;;;8.60;4.03;;;;;;;10.85;nan;99466.09;5027278;27;97210;-82
2023/11/21 03:18:22;;;;;;;7.97;2.95;;;;;;;10.80;nan;99449.69;5027825;27;96894;-83
2023/11/21 03:20:48;;;;;;;6.80;3.92;;;;;;;10.91;nan;99467.53;5044694;27;98013;-83
2023/11/21 03:23:13;;;;;;;8.10;3.22;;;;;;;10.91;nan;99468.41;5031838;27;101623;-83
2023/11/21 03:25:39;;;;;;;7.72;3.90;;;;;;;10.90;nan;99471.94;5014896;27;96838;-83
2023/11/21 03:28:05;;;;;;;11.77;4.15;;;;;;;10.91;nan;99473.66;5030593;27;97074;-83
2023/11/21 03:30:31;;;;;;;8.55;3.55;;;;;;;10.93;nan;99470.94;5022024;27;97346;-82
2023/11/21 03:32:57;;;;;;;8.48;4.22;;;;;;;10.91;nan;99472.78;5019547;28;101518;-82
2023/11/21 03:35:23;;;;;;;10.13;4.00;;;;;;;10.75;nan;99455.16;5016188;27;97472;-83
2023/11/21 03:37:48;;;;;;;12.25;3.97;;;;;;;10.84;nan;99480.13;5039123;27;97427;-83
2023/11/21 03:40:14;;;;;;;6.65;3.80;;;;;;;10.85;nan;99484.47;5010786;28;101853;-82
2023/11/21 03:42:40;;;;;;;5.35;2.90;;;;;;;10.81;nan;99485.53;5021816;28;101700;-82
2023/11/21 03:45:06;;;;;;;8.32;3.50;;;;;;;10.78;nan;99483.03;5022020;27;97061;-83
2023/11/21 03:47:32;;;;;;;6.25;3.53;;;;;;;10.81;nan;99488.16;5027120;27;96856;-82
2023/11/21 03:49:57;;;;;;;12.95;4.43;;;;;;;10.87;nan;99483.44;5013360;27;100913;-82
2023/11/21 03:52:24;;;;;;;13.68;3.92;;;;;;;10.78;nan;99478.63;5043079;27;99049;-82
2023/11/21 03:54:49;;;;;;;7.75;3.47;;;;;;;10.71;nan;99490.38;5010121;27;97641;-82
2023/11/21 03:57:15;;;;;;;10.88;4.07;;;;;;;10.74;nan;99489.38;5013658;28;97083;-82
2023/11/21 03:59:42;;;;;;;5.20;2.90;;;;;;;10.64;nan;99473.19;5012812;27;101167;-82
2023/11/21 04:02:08;;;;;;;8.57;3.90;;;;;;;10.75;nan;99488.44;5038656;27;97970;-82
2023/11/21 04:04:34;;;;;;;7.05;3.30;;;;;;;10.69;nan;99491.38;5016356;27;96760;-82
2023/11/21 04:06:59;;;;;;;7.78;3.53;;;;;;;10.66;nan;99489.72;5021465;27;97021;-83
2023/11/21 04:09:25;;;;;;;7.15;3.40;;;;;;;10.53;nan;99471.09;5036968;27;97738;-83
2023/11/21 04:11:55;;;;;;;6.88;4.03;;;;;;;10.65;nan;99493.28;5036611;27;97846;-84
2023/11/21 04:14:22;;;;;;;7.35;4.03;;;;;;;10.74;nan;99487.59;5028466;28;96838;-83
2023/11/21 04:16:48;;;;;;;6.35;3.55;;;;;;;10.72;nan;99478.94;5013101;27;96977;-84
2023/11/21 04:19:17;;;;;;;11.98;3.92;;;;;;;10.67;nan;99491.41;5050449;27;98006;-83
2023/11/21 04:21:42;;;;;;;7.85;3.65;;;;;;;10.75;nan;99491.91;5036688;27;97524;-83
2023/11/21 04:24:08;;;;;;;8.40;3.80;;;;;;;10.76;nan;99496.25;5049708;27;96775;-81
2023/11/21 04:26:33;;;;;;;10.18;3.65;;;;;;;10.76;nan;99501.50;5001106;27;96973;-85
2023/11/21 04:28:59;;;;;;;7.35;3.70;;;;;;;10.72;nan;99504.34;5027580;27;97685;-81
2023/11/21 04:31:24;;;;;;;6.35;3.47;;;;;;;10.76;nan;99508.50;5028070;27;97606;-81
2023/11/21 04:33:50;;;;;;;8.27;3.38;;;;;;;10.80;nan;99510.09;5036126;27;97250;-85
2023/11/21 04:36:16;;;;;;;9.82;5.22;;;;;;;10.76;nan;99504.13;5022082;28;96824;-82
2023/11/21 04:38:42;;;;;;;9.80;3.60;;;;;;;10.79;nan;99505.72;5040005;27;97549;-82
2023/11/21 04:41:07;;;;;;;7.53;3.42;;;;;;;10.80;nan;99505.69;5023693;27;101063;-83
2023/11/21 04:43:33;;;;;;;8.45;3.97;;;;;;;10.68;nan;99487.03;5022553;27;96952;-83
2023/11/21 04:45:59;;;;;;;7.90;3.78;;;;;;;10.78;nan;99510.13;5043382;27;96741;-83
2023/11/21 04:48:25;;;;;;;7.97;3.95;;;;;;;10.79;nan;99500.47;5022113;27;101198;-83
2023/11/21 04:50:51;;;;;;;9.32;4.75;;;;;;;10.83;nan;99521.28;5023145;27;97851;-84
2023/11/21 04:53:17;;;;;;;6.30;3.80;;;;;;;10.82;nan;99522.22;5042545;27;97063;-82
2023/11/21 04:55:43;;;;;;;5.63;3.15;;;;;;;10.83;nan;99518.66;5023982;27;97577;-83
2023/11/21 04:58:09;;;;;;;6.03;3.50;;;;;;;10.79;nan;99524.09;5008713;27;97779;-83
2023/11/21 05:00:41;;;;;;;8.80;3.88;;;;;;;10.50;nan;99467.75;5004953;27;102736;-83
2023/11/21 05:03:07;;;;;;;8.20;3.70;;;;;;;10.72;nan;99522.72;5024514;27;97140;-82
2023/11/21 05:05:33;;;;;;;7.70;3.97;;;;;;;10.70;nan;99521.94;5054895;27;96776;-83
2023/11/21 05:07:59;;;;;;;8.50;3.80;;;;;;;10.70;nan;99527.19;5021809;27;97678;-83
2023/11/21 05:10:25;;;;;;;7.93;3.42;;;;;;;10.74;nan;99526.97;5021253;27;97324;-83
2023/11/21 05:12:50;;;;;;;7.20;4.68;;;;;;;10.77;nan;99528.59;5022825;27;97940;-84
2023/11/21 05:15:19;;;;;;;10.43;4.57;;;;;;;10.68;nan;99529.88;4999811;27;96887;-84
2023/11/21 05:17:45;;;;;;;9.68;5.15;;;;;;;10.48;nan;99504.56;5036574;27;98082;-83
2023/11/21 05:20:14;;;;;;;10.00;4.35;;;;;;;10.71;nan;99526.28;5043883;27;96708;-81
2023/11/21 05:22:40;;;;;;;7.63;5.40;;;;;;;10.61;nan;99531.94;5005414;27;96863;-82
2023/11/21 05:25:08;;;;;;;10.85;4.70;;;;;;;10.66;nan;99539.59;5024158;27;97501;-83
2023/11/21 05:27:34;;;;;;;9.07;4.55;;;;;;;10.57;nan;99530.38;5034589;27;98462;-83
2023/11/21 05:30:12;;;;;;;7.90;3.97;;;;;;;10.60;nan;99532.84;5037280;27;97888;-82
2023/11/21 05:32:37;;;;;;;6.55;4.07;;;;;;;10.53;nan;99534.09;5032402;27;96846;-82
2023/11/21 05:35:09;;;;;;;9.93;4.82;;;;;;;10.64;nan;99536.19;5023238;27;96935;-82
2023/11/21 05:37:35;;;;;;;7.63;3.90;;;;;;;10.73;nan;99542.78;5038549;27;98137;-82
2023/11/21 05:40:05;;;;;;;7.75;4.43;;;;;;;10.71;nan;99539.41;5034420;27;97575;-82
2023/11/21 05:42:34;;;;;;;8.15;4.80;;;;;;;10.78;nan;99541.63;5025599;27;98128;-82
2023/11/21 05:45:09;;;;;;;11.75;4.85;;;;;;;10.79;nan;99547.72;5027223;27;97273;-83
2023/11/21 05:47:40;;;;;;;8.55;4.57;;;;;;;10.80;nan;99550.31;5021433;27;97798;-84
2023/11/21 05:50:14;;;;;;;13.65;4.78;;;;;;;10.69;nan;99534.19;5033912;27;97534;-84
2023/11/21 05:52:41;;;;;;;12.52;5.20;;;;;;;10.81;nan;99559.03;5027853;27;97230;-83
2023/11/21 05:55:10;;;;;;;13.60;5.45;;;;;;;10.84;nan;99562.34;5027113;27;97353;-84
2023/11/21 05:57:39;;;;;;;12.90;6.05;;;;;;;10.81;nan;99564.28;5006751;28;101087;-84
2023/11/21 06:00:32;;;;;;;10.32;4.65;;;;;;;10.70;nan;99561.28;5003782;27;101356;-84
2023/11/21 06:02:57;;;;;;;13.63;4.50;;;;;;;10.69;nan;99567.47;5020437;27;96819;-83
2023/11/21 06:05:23;;;;;;;13.05;4.68;;;;;;;10.69;nan;99554.34;5010653;27;97134;-81
2023/11/21 06:07:50;;;;;;;12.68;4.80;;;;;;;10.61;nan;99552.91;5018424;27;97638;-82
2023/11/21 06:10:17;;;;;;;11.45;5.45;;;;;;;10.73;nan;99571.66;5017525;28;97744;-84
2023/11/21 06:12:43;;;;;;;10.80;5.10;;;;;;;10.70;nan;99571.78;5006612;27;96909;-79
2023/11/21 06:15:11;;;;;;;11.07;5.00;;;;;;;10.69;nan;99576.19;4991428;28;98640;-78
2023/11/21 06:17:37;;;;;;;9.10;4.97;;;;;;;10.71;nan;99574.38;5006061;28;101358;-84
2023/11/21 06:20:08;;;;;;;10.65;5.00;;;;;;;10.81;nan;99580.03;4997361;28;97626;-85
2023/11/21 06:22:38;;;;;;;13.02;4.05;;;;;;;10.78;nan;99575.78;5005953;28;96709;-84
2023/11/21 06:25:05;;;;;;;9.32;4.25;;;;;;;10.65;nan;99572.03;5007544;27;97263;-86
2023/11/21 06:27:41;;;;;;;8.63;4.45;;;;;;;10.76;nan;99593.38;5016886;27;99248;-85
2023/11/21 06:30:09;;;;;;;8.43;4.47;;;;;;;10.73;nan;99592.66;5027199;27;98027;-84
2023/11/21 06:32:35;;;;;;;6.80;4.00;;;;;;;10.74;nan;99594.38;5002323;27;97816;-85
2023/11/21 06:35:04;;;;;;;7.03;3.70;;;;;;;10.75;nan;99599.53;4994125;27;97092;-85
2023/11/21 06:37:30;;;;;;;8.38;4.07;;;;;;;10.71;nan;99600.63;5007220;28;98612;-85
2023/11/21 06:39:56;;;;;;;8.20;4.20;;;;;;;10.75;nan;99603.94;5014239;27;97564;-85
2023/11/21 06:42:23;;;;;;;10.85;5.10;;;;;;;10.74;nan;99597.84;5029574;27;96852;-85
2023/11/21 06:44:51;;;;;;;10.45;4.45;;;;;;;10.76;nan;99611.75;5009056;27;97263;-85
2023/11/21 06:47:17;;;;;;;7.97;4.65;;;;;;;10.78;nan;99609.06;5007400;28;97555;-83
2023/11/21 06:49:43;;;;;;;7.50;4.18;;;;;;;10.73;nan;99603.16;5007093;27;99425;-82
2023/11/21 06:52:08;;;;;;;8.30;4.95;;;;;;;10.74;nan;99613.59;4995314;27;96933;-82
2023/11/21 06:54:34;;;;;;;8.05;4.65;;;;;;;10.77;nan;99612.59;5004818;28;97038;-82
2023/11/21 06:57:00;;;;;;;8.20;4.82;;;;;;;10.77;nan;99618.72;5028526;27;97511;-83
2023/11/21 06:59:28;;;;;;;9.25;4.75;;;;;;;10.56;nan;99606.53;4998506;28;97926;-83
2023/11/21 07:01:54;;;;;;;8.77;4.55;;;;;;;10.78;nan;99612.53;4987030;27;96850;-82
2023/11/21 07:04:20;;;;;;;7.97;4.40;;;;;;;10.76;nan;99614.38;4997228;27;97287;-83
2023/11/21 07:06:45;;;;;;;12.13;5.03;;;;;;;10.75;nan;99611.81;5014681;27;98612;-83
2023/11/21 07:09:11;;;;;;;11.07;5.35;;;;;;;10.83;nan;99621.03;4997426;28;100527;-83
2023/11/21 07:11:38;;;;;;;15.30;4.93;;;;;;;10.79;nan;99610.75;4983125;28;96860;-85
2023/11/21 07:14:07;;;;;;;11.18;5.13;;;;;;;10.84;nan;99611.38;4981407;28;96828;-85
2023/11/21 07:16:39;;;;;;;8.20;4.43;;;;;;;10.82;nan;99621.09;4988695;28;97367;-85
2023/11/21 07:19:08;;;;;;;8.63;4.72;;;;;;;10.79;nan;99616.00;4991720;28;98155;-85
2023/11/21 07:21:37;;;;;;;12.25;5.25;;;;;;;10.81;nan;99622.88;4995313;28;96947;-85
2023/11/21 07:24:03;;;;;;;15.07;5.82;;;;;;;10.77;nan;99618.72;5012983;28;97146;-84
2023/11/21 07:26:30;;;;;;;8.60;4.72;;;;;;;10.85;nan;99618.38;5007087;27;98141;-84
2023/11/21 07:28:56;;;;;;;11.45;5.40;;;;;;;10.80;nan;99623.81;4997641;28;98634;-78
2023/11/21 07:31:24;;;;;;;11.52;5.32;;;;;;;10.73;nan;99617.13;5005624;28;97390;-78
2023/11/21 07:33:50;;;;;;;9.02;4.50;;;;;;;10.87;nan;99627.00;4981025;28;98409;-79
2023/11/21 07:36:18;;;;;;;8.63;4.72;;;;;;;10.91;nan;99636.47;4981483;28;100830;-83
2023/11/21 07:38:44;;;;;;;11.02;5.40;;;;;;;10.91;nan;99641.72;4979711;28;101649;-85
2023/11/21 07:41:11;;;;;;;7.90;4.00;;;;;;;10.95;nan;99635.38;5007671;28;96765;-80
2023/11/21 07:43:37;;;;;;;10.98;5.15;;;;;;;10.82;nan;99628.97;4976787;28;96928;-83
2023/11/21 07:46:03;;;;;;;11.68;4.28;;;;;;;10.92;nan;99634.69;5010518;28;97541;-80
2023/11/21 07:48:29;;;;;;;11.25;5.10;;;;;;;10.91;nan;99631.22;4991447;28;100964;-81
2023/11/21 07:50:55;;;;;;;13.75;5.20;;;;;;;10.87;nan;99629.63;4984865;28;96890;-80
2023/11/21 07:53:21;;;;;;;10.70;5.03;;;;;;;10.90;nan;99636.50;4991873;28;96887;-80
2023/11/21 07:55:47;;;;;;;11.95;4.93;;;;;;;10.98;nan;99643.13;5010424;28;97430;-78
2023/11/21 07:58:13;;;;;;;10.05;4.53;;;;;;;10.90;nan;99641.75;5010515;28;97329;-78
2023/11/21 08:00:39;;;;;;;10.07;5.25;;;;;;;10.96;nan;99647.56;4994753;28;97410;-80
2023/11/21 08:03:05;;;;;;;11.57;5.20;;;;;;;10.69;nan;99638.34;5017644;28;96750;-81
2023/11/21 08:05:34;;;;;;;11.13;5.53;;;;;;;10.80;nan;99630.84;5011615;28;99203;-79
2023/11/21 08:07:59;;;;;;;9.35;5.35;;;;;;;10.86;nan;99636.66;5019858;28;97839;-81
2023/11/21 08:10:26;;;;;;;12.55;5.63;;;;;;;10.91;nan;99646.09;5018694;28;97151;-81
2023/11/21 08:12:52;;;;;;;9.45;5.03;;;;;;;10.84;nan;99625.38;5010375;27;97296;-81
2023/11/21 08:15:17;;;;;;;7.85;5.28;;;;;;;10.94;nan;99652.06;5039200;27;99090;-81
2023/11/21 08:17:43;;;;;;;11.40;5.00;;;;;;;11.00;nan;99646.53;5013919;27;97343;-81
2023/11/21 08:20:10;;;;;;;12.70;5.20;;;;;;;10.92;nan;99648.66;5010656;27;96868;-81
2023/11/21 08:22:36;;;;;;;9.80;4.70;;;;;;;10.99;nan;99641.34;5044516;27;96830;-81
2023/11/21 08:25:04;;;;;;;12.40;5.22;;;;;;;10.95;nan;99645.88;5019320;27;98108;-81
2023/11/21 08:27:29;;;;;;;10.38;5.18;;;;;;;10.92;nan;99642.56;5026995;27;97522;-82
2023/11/21 08:29:56;;;;;;;13.98;5.18;;;;;;;11.02;nan;99656.94;5008449;27;97120;-81
2023/11/21 08:32:22;;;;;;;8.95;5.13;;;;;;;10.86;nan;99639.28;5026584;27;96834;-81
2023/11/21 08:34:50;;;;;;;11.25;5.20;;;;;;;10.93;nan;99647.72;5022702;27;98588;-81
2023/11/21 08:37:16;;;;;;;10.75;5.55;;;;;;;10.94;nan;99649.44;5001016;27;101814;-82
2023/11/21 08:39:43;;;;;;;12.23;5.38;;;;;;;11.04;nan;99660.38;4987191;27;97587;-82
2023/11/21 08:42:09;;;;;;;9.07;4.78;;;;;;;10.99;nan;99650.06;5029858;27;96796;-82
2023/11/21 08:44:34;;;;;;;7.60;4.80;;;;;;;11.18;nan;99668.47;5048708;27;97425;-82
2023/11/21 08:47:00;;;;;;;9.38;4.47;;;;;;;11.17;nan;99661.50;4993012;27;100993;-82
2023/11/21 08:49:27;;;;;;;10.77;5.88;;;;;;;11.23;nan;99670.88;5010156;27;97886;-82
2023/11/21 08:51:55;;;;;;;8.35;4.10;;;;;;;11.21;nan;99670.94;4995793;27;98018;-82
2023/11/21 08:54:21;;;;;;;12.57;4.82;;;;;;;11.13;nan;99651.22;5012297;27;97591;-82
2023/11/21 08:56:46;;;;;;;7.93;4.53;;;;;;;11.32;nan;99668.66;5006998;27;101594;-82
2023/11/21 08:59:14;;;;;;;11.70;5.00;;;;;;;11.40;nan;99670.06;4993203;27;97090;-80
2023/11/21 09:01:39;;;;;;;10.85;4.50;;;;;;;11.46;nan;99660.13;5032895;27;96947;-81
2023/11/21 09:04:05;;;;;;;7.55;4.25;;;;;;;11.50;nan;99669.56;5027067;27;97395;-80
2023/11/21 09:06:31;;;;;;;20.00;5.47;;;;;;;11.41;nan;99654.22;5031061;27;97459;-86
2023/11/21 09:08:56;;;;;;;9.68;4.85;;;;;;;11.47;nan;99667.06;5008825;27;98230;-86
2023/11/21 09:11:21;;;;;;;8.45;4.72;;;;;;;11.47;nan;99671.47;5023979;27;97249;-86
2023/11/21 09:13:47;;;;;;;10.98;5.13;;;;;;;11.29;nan;99660.94;5011963;27;101451;-86
2023/11/21 09:16:15;;;;;;;9.75;4.57;;;;;;;11.29;nan;99649.56;5011199;27;97076;-89
2023/11/21 09:18:41;;;;;;;20.67;5.35;;;;;;;11.39;nan;99679.72;4990538;27;96882;-85
2023/11/21 09:21:06;;;;;;;9.15;4.30;;;;;;;11.38;nan;99677.19;5024210;27;96913;-86
2023/11/21 09:23:32;;;;;;;8.75;4.78;;;;;;;11.35;nan;99674.72;5006851;27;100364;-85
2023/11/21 09:25:59;;;;;;;10.15;5.00;;;;;;;11.40;nan;99670.91;5044889;27;97391;-86
2023/11/21 09:28:28;;;;;;;9.75;4.85;;;;;;;11.31;nan;99679.22;5015104;27;96938;-85
2023/11/21 09:30:54;;;;;;;10.63;5.25;;;;;;;11.26;nan;99666.31;5049419;27;97860;-85
2023/11/21 09:33:20;;;;;;;13.68;4.78;;;;;;;11.37;nan;99683.34;5009475;27;99467;-88
2023/11/21 09:35:46;;;;;;;15.23;5.72;;;;;;;11.37;nan;99678.09;4996227;27;101380;-89
2023/11/21 09:38:11;;;;;;;12.82;4.43;;;;;;;11.45;nan;99689.09;5001568;27;98056;-89
2023/11/21 09:40:37;;;;;;;7.72;4.65;;;;;;;11.35;nan;99674.72;5027735;27;97118;-88
2023/11/21 09:43:14;;;;;;;9.35;4.75;;;;;;;11.42;nan;99686.63;5007448;27;100920;-88
2023/11/21 09:45:39;;;;;;;12.10;4.70;;;;;;;11.48;nan;99689.78;5030871;27;100040;-89
2023/11/21 09:48:06;;;;;;;11.18;5.80;;;;;;;11.44;nan;99684.78;5011132;27;97336;-89
2023/11/21 09:50:33;;;;;;;11.07;7.15;;;;;;;11.43;nan;99686.56;5017922;27;96811;-89
2023/11/21 09:53:00;;;;;;;17.60;7.97;;;;;;;11.48;nan;99694.19;5029935;27;98176;-88
2023/11/21 09:55:29;;;;;;;13.50;8.15;;;;;;;11.49;nan;99690.63;5046376;27;98219;-88
2023/11/21 09:57:56;;;;;;;24.83;11.00;;;;;;;11.52;nan;99682.63;5042725;27;97100;-88
2023/11/21 10:00:23;;;;;;;30.63;14.93;;;;;;;11.50;nan;99672.19;5034521;27;97630;-88
2023/11/21 10:02:49;;;;;;;26.13;13.45;;;;;;;11.39;nan;99679.72;5007566;27;101358;-88
2023/11/21 10:05:17;;;;;;;15.25;7.72;;;;;;;11.50;nan;99695.00;5025401;27;97371;-88
2023/11/21 10:07:44;;;;;;;7.32;5.00;;;;;;;11.60;nan;99698.88;5024899;27;97285;-87
2023/11/21 10:10:10;;;;;;;14.30;5.40;;;;;;;11.53;nan;99689.59;5030839;27;97534;-90
2023/11/21 10:12:38;;;;;;;12.23;4.85;;;;;;;11.64;nan;99704.84;5011225;27;97551;-79
2023/11/21 10:15:07;;;;;;;8.80;4.65;;;;;;;11.60;nan;99695.38;5016324;27;101646;-78
2023/11/21 10:17:42;;;;;;;14.63;5.55;;;;;;;11.62;nan;99694.41;5038051;27;96826;-79
2023/11/21 10:20:11;;;;;;;15.00;5.78;;;;;;;11.56;nan;99684.19;5011777;27;98266;-80
2023/11/21 10:22:41;;;;;;;8.82;5.28;;;;;;;11.53;nan;99684.31;5012474;27;99724;-82
2023/11/21 10:25:10;;;;;;;12.05;5.20;;;;;;;11.49;nan;99680.13;5029688;27;97420;-81
2023/11/21 10:27:39;;;;;;;14.05;6.22;;;;;;;11.63;nan;99703.97;5014677;27;97454;-82
2023/11/21 10:30:05;;;;;;;13.52;6.60;;;;;;;11.63;nan;99701.34;5012682;27;96824;-80
2023/11/21 10:32:32;;;;;;;9.30;5.80;;;;;;;11.61;nan;99705.00;5025000;27;97392;-83
2023/11/21 10:35:06;;;;;;;15.45;7.03;;;;;;;11.63;nan;99703.13;4986223;27;101627;-82
2023/11/21 10:37:32;;;;;;;10.50;6.10;;;;;;;11.55;nan;99682.50;4996219;27;96904;-82
2023/11/21 10:40:01;;;;;;;17.95;6.68;;;;;;;11.64;nan;99704.84;5014710;27;96857;-83
2023/11/21 10:42:27;;;;;;;11.05;6.05;;;;;;;11.52;nan;99701.88;5024750;27;99028;-85
2023/11/21 10:44:53;;;;;;;10.45;4.90;;;;;;;11.59;nan;99707.69;4998767;27;99091;-85
2023/11/21 10:47:19;;;;;;;7.68;4.53;;;;;;;11.56;nan;99710.47;5015821;27;96942;-84
2023/11/21 10:49:48;;;;;;;10.88;4.97;;;;;;;11.55;nan;99693.84;4998130;27;97431;-84
2023/11/21 10:52:17;;;;;;;11.70;5.22;;;;;;;11.65;nan;99711.81;5028221;27;97418;-84
2023/11/21 10:54:43;;;;;;;12.82;5.68;;;;;;;11.62;nan;99712.78;5007529;27;101432;-85
2023/11/21 10:57:10;;;;;;;29.58;7.20;;;;;;;11.69;nan;99714.22;5019327;27;97507;-84
2023/11/21 10:59:36;;;;;;;8.20;5.07;;;;;;;11.75;nan;99713.94;5002556;27;97211;-83
2023/11/21 11:02:13;;;;;;;6.85;4.28;;;;;;;11.80;nan;99713.69;5004213;27;101102;-84
2023/11/21 11:04:39;;;;;;;10.50;4.57;;;;;;;11.84;nan;99717.00;5017814;27;101617;-84
2023/11/21 11:07:05;;;;;;;10.48;5.20;;;;;;;11.87;nan;99716.88;4999426;28;97576;-84
2023/11/21 11:09:33;;;;;;;12.43;7.95;;;;;;;11.81;nan;99725.03;5005711;27;97237;-85
2023/11/21 11:11:59;;;;;;;15.13;11.23;;;;;;;11.62;nan;99717.22;5015202;27;101611;-84
2023/11/21 11:14:25;;;;;;;23.58;14.85;;;;;;;11.41;nan;99721.72;5012849;27;97542;-87
2023/11/21 11:16:54;;;;;;;21.85;15.52;;;;;;;11.60;nan;99726.94;5003774;28;96701;-86
2023/11/21 11:19:19;;;;;;;26.40;17.08;;;;;;;11.50;nan;99711.59;5022401;27;96785;-84
2023/11/21 11:22:00;;;;;;;24.45;18.20;;;;;;;11.34;nan;99718.50;4990794;27;102069;-85
2023/11/21 11:24:55;;;;;;;25.05;17.88;;;;;;;11.29;nan;99723.97;5025352;27;97728;-85
2023/11/21 11:27:39;;;;;;;29.75;18.35;;;;;;;11.21;nan;99725.25;5007040;28;97210;-86
2023/11/21 11:30:38;;;;;;;28.75;20.02;;;;;;;11.06;nan;99725.03;5048149;27;96984;-84
2023/11/21 11:33:25;;;;;;;29.98;20.38;;;;;;;11.02;nan;99733.09;5010436;27;101388;-84
2023/11/21 11:35:54;;;;;;;27.95;18.98;;;;;;;11.02;nan;99739.22;5040290;27;101296;-85
2023/11/21 11:38:22;;;;;;;28.20;18.75;;;;;;;10.91;nan;99723.13;5063317;27;97074;-84
2023/11/21 11:40:48;;;;;;;28.67;18.77;;;;;;;11.12;nan;99737.03;5023349;27;97369;-86
2023/11/21 11:43:25;;;;;;;25.02;17.95;;;;;;;11.23;nan;99736.56;5009527;27;101064;-84
2023/11/21 11:45:52;;;;;;;24.38;15.85;;;;;;;10.98;nan;99742.91;5013236;27;98593;-86